Time;durP1;ratioP1;P1;durP2;ratioP2;P2;SDS_P1;SDS_P2;PMS_P1;PMS_P2;Temp;Humidity;BMP_temperature;BMP_pressure;BME280_temperature;BME280_humidity;BME280_pressure;Samples;Min_cycle;Max_cycle;Signal;HPM_P1;HPM_P2
2024/02/08 00:01:42;;;;;;;24.37;15.27;;;1.10;99.90;;;;;;5032704;28;20447;-75
2024/02/08 00:04:11;;;;;;;24.30;14.73;;;1.10;99.90;;;;;;5032606;28;20532;-76
2024/02/08 00:06:39;;;;;;;22.20;14.03;;;1.10;99.90;;;;;;5033910;28;20452;-75
2024/02/08 00:09:08;;;;;;;21.77;12.87;;;1.10;99.90;;;;;;5032677;28;20932;-75
2024/02/08 00:11:36;;;;;;;21.40;11.30;;;1.00;99.90;;;;;;5032554;28;20559;-75
2024/02/08 00:14:04;;;;;;;17.50;9.80;;;1.00;99.90;;;;;;5033663;28;20470;-75
2024/02/08 00:16:37;;;;;;;12.60;8.80;;;1.00;99.90;;;;;;5032479;28;20456;-76
2024/02/08 00:19:05;;;;;;;16.00;9.83;;;1.00;99.90;;;;;;5033332;28;20424;-75
2024/02/08 00:21:35;;;;;;;11.93;7.67;;;1.00;99.90;;;;;;5032445;28;20468;-75
2024/02/08 00:24:03;;;;;;;14.87;7.33;;;1.00;99.90;;;;;;5032320;28;21144;-75
2024/02/08 00:26:31;;;;;;;10.20;7.27;;;1.00;99.90;;;;;;5033642;28;20817;-75
2024/02/08 00:29:01;;;;;;;12.60;7.73;;;0.90;99.90;;;;;;5032270;28;20952;-75
2024/02/08 00:31:29;;;;;;;8.93;7.43;;;0.90;99.90;;;;;;5032136;28;20468;-75
2024/02/08 00:33:59;;;;;;;15.20;8.20;;;0.90;99.90;;;;;;5032159;28;20519;-75
2024/02/08 00:36:27;;;;;;;10.50;7.77;;;0.90;99.90;;;;;;5032432;28;20544;-75
2024/02/08 00:38:55;;;;;;;31.93;7.60;;;0.90;99.90;;;;;;5033406;28;20493;-75
2024/02/08 00:41:24;;;;;;;10.23;6.63;;;0.90;99.90;;;;;;5033536;28;20437;-75
2024/02/08 00:43:52;;;;;;;10.97;6.37;;;0.90;99.90;;;;;;5033284;28;20433;-75
2024/02/08 00:46:20;;;;;;;12.33;7.20;;;0.90;99.90;;;;;;5033576;28;20496;-75
2024/02/08 00:48:48;;;;;;;10.70;7.00;;;0.90;99.90;;;;;;5032061;28;20567;-75
2024/02/08 00:51:20;;;;;;;13.83;8.80;;;0.80;99.90;;;;;;5031871;28;20471;-75
2024/02/08 00:53:48;;;;;;;9.53;6.87;;;0.80;99.90;;;;;;5031937;28;20505;-75
2024/02/08 00:56:16;;;;;;;10.67;6.83;;;0.80;99.90;;;;;;5031956;28;20865;-75
2024/02/08 00:58:47;;;;;;;15.30;7.03;;;0.80;99.90;;;;;;5033410;28;20438;-75
2024/02/08 01:01:17;;;;;;;8.00;6.00;;;0.80;99.90;;;;;;5031902;28;20459;-75
2024/02/08 01:03:46;;;;;;;14.73;6.60;;;0.80;99.90;;;;;;5031886;28;20465;-75
2024/02/08 01:06:14;;;;;;;14.50;6.70;;;0.70;99.90;;;;;;5032071;28;20443;-76
2024/02/08 01:08:44;;;;;;;11.20;6.47;;;0.70;99.90;;;;;;5031820;28;20518;-75
2024/02/08 01:11:12;;;;;;;10.10;6.97;;;0.70;99.90;;;;;;5031730;28;20475;-75
2024/02/08 01:13:40;;;;;;;14.17;6.73;;;0.70;99.90;;;;;;5032940;28;20524;-75
2024/02/08 01:16:11;;;;;;;14.50;6.73;;;0.70;99.90;;;;;;5031711;28;20457;-75
2024/02/08 01:18:41;;;;;;;10.13;6.97;;;0.70;99.90;;;;;;5033062;28;20764;-75
2024/02/08 01:21:10;;;;;;;10.13;6.43;;;0.70;99.90;;;;;;5032851;28;20444;-75
2024/02/08 01:23:38;;;;;;;12.63;6.50;;;0.70;99.90;;;;;;5031697;28;20448;-75
2024/02/08 01:26:08;;;;;;;16.90;6.90;;;0.70;99.90;;;;;;5031553;28;20469;-75
2024/02/08 01:28:37;;;;;;;8.10;6.27;;;0.70;99.90;;;;;;5031754;28;20858;-75
2024/02/08 01:31:06;;;;;;;9.47;5.70;;;0.60;99.90;;;;;;5033480;28;20527;-75
2024/02/08 01:33:36;;;;;;;9.30;6.50;;;0.60;99.90;;;;;;5035465;28;20436;-75
2024/02/08 01:36:05;;;;;;;8.60;6.60;;;0.60;99.90;;;;;;5036674;28;20468;-75
2024/02/08 01:38:33;;;;;;;11.70;8.77;;;0.60;99.90;;;;;;5035451;28;20837;-75
2024/02/08 01:41:06;;;;;;;11.43;7.03;;;0.60;99.90;;;;;;5035420;28;20451;-75
2024/02/08 01:43:36;;;;;;;16.03;7.73;;;0.60;99.90;;;;;;5035367;28;20446;-75
2024/02/08 01:46:04;;;;;;;12.27;7.10;;;0.60;99.90;;;;;;5035191;28;20838;-75
2024/02/08 01:48:32;;;;;;;11.00;7.97;;;0.60;99.90;;;;;;5035308;28;20526;-75
2024/02/08 01:51:04;;;;;;;10.67;6.17;;;0.60;99.90;;;;;;5036340;28;20877;-75
2024/02/08 01:53:32;;;;;;;9.27;6.40;;;0.60;99.90;;;;;;5035468;28;20438;-75
2024/02/08 01:56:02;;;;;;;8.33;6.23;;;0.60;99.90;;;;;;5036279;28;20457;-75
2024/02/08 01:58:34;;;;;;;15.20;7.03;;;0.60;99.90;;;;;;5035008;28;20465;-75
2024/02/08 02:01:16;;;;;;;11.33;6.77;;;0.60;99.90;;;;;;5035065;28;20439;-75
2024/02/08 02:03:46;;;;;;;12.10;6.60;;;0.60;99.90;;;;;;5036171;28;20990;-75
2024/02/08 02:06:14;;;;;;;9.43;7.20;;;0.60;99.90;;;;;;5034964;28;20445;-75
2024/02/08 02:08:53;;;;;;;12.83;6.53;;;0.60;99.90;;;;;;5034865;28;20439;-75
2024/02/08 02:11:28;;;;;;;15.83;6.87;;;0.70;99.90;;;;;;5034804;28;20552;-75
2024/02/08 02:13:58;;;;;;;11.37;6.10;;;0.60;99.90;;;;;;5034669;28;20486;-75
2024/02/08 02:16:28;;;;;;;7.97;5.80;;;0.70;99.90;;;;;;5035988;28;20444;-75
2024/02/08 02:18:57;;;;;;;12.23;6.90;;;0.60;99.90;;;;;;5034703;28;20907;-75
2024/02/08 02:21:27;;;;;;;9.77;6.70;;;0.70;99.90;;;;;;5034616;28;20446;-76
2024/02/08 02:23:56;;;;;;;9.30;6.90;;;0.70;99.90;;;;;;5036068;28;20429;-76
2024/02/08 02:26:25;;;;;;;12.73;7.80;;;0.70;99.90;;;;;;5035770;28;20495;-75
2024/02/08 02:28:53;;;;;;;14.80;8.17;;;0.70;99.90;;;;;;5035761;28;20438;-76
2024/02/08 02:31:23;;;;;;;8.23;7.20;;;0.70;99.90;;;;;;5034353;28;20467;-76
2024/02/08 02:33:54;;;;;;;9.97;7.87;;;0.70;99.90;;;;;;5034332;28;20522;-75
2024/02/08 02:36:22;;;;;;;11.30;7.53;;;0.70;99.90;;;;;;5034366;28;20441;-76
2024/02/08 02:38:52;;;;;;;11.63;7.50;;;0.70;99.90;;;;;;5035554;28;20529;-75
2024/02/08 02:41:25;;;;;;;16.97;7.00;;;0.70;99.90;;;;;;5034294;28;20457;-75
2024/02/08 02:43:53;;;;;;;14.80;6.93;;;0.70;99.90;;;;;;5034907;28;20415;-75
2024/02/08 02:46:22;;;;;;;10.53;7.97;;;0.70;99.90;;;;;;5035657;28;20443;-75
2024/02/08 02:48:50;;;;;;;11.40;7.07;;;0.70;99.90;;;;;;5035463;28;20801;-75
2024/02/08 02:51:19;;;;;;;11.27;7.40;;;0.70;99.90;;;;;;5034017;28;21033;-75
2024/02/08 02:53:47;;;;;;;12.57;7.03;;;0.70;99.90;;;;;;5035554;28;20446;-75
2024/02/08 02:56:19;;;;;;;8.90;7.17;;;0.70;99.90;;;;;;5035243;28;20898;-75
2024/02/08 02:58:47;;;;;;;11.97;7.40;;;0.70;99.90;;;;;;5034033;28;20523;-75
2024/02/08 03:01:16;;;;;;;8.40;5.90;;;0.70;99.90;;;;;;5035224;28;20441;-75
2024/02/08 03:03:47;;;;;;;9.03;6.90;;;0.70;99.90;;;;;;5033911;28;20805;-75
2024/02/08 03:06:15;;;;;;;11.50;6.93;;;0.80;99.90;;;;;;5035081;28;20487;-75
2024/02/08 03:08:45;;;;;;;12.20;7.20;;;0.80;99.90;;;;;;5033753;28;20945;-75
2024/02/08 03:11:14;;;;;;;9.70;6.37;;;0.80;99.90;;;;;;5035197;28;20540;-76
2024/02/08 03:13:45;;;;;;;8.83;7.63;;;0.80;99.90;;;;;;5034809;28;20812;-75
2024/02/08 03:16:16;;;;;;;9.73;7.10;;;0.80;99.90;;;;;;5033684;28;20539;-75
2024/02/08 03:18:48;;;;;;;10.23;7.30;;;0.70;99.90;;;;;;5035210;28;20426;-75
2024/02/08 03:21:21;;;;;;;11.03;6.97;;;0.80;99.90;;;;;;5034986;28;20481;-75
2024/02/08 03:23:50;;;;;;;16.23;7.50;;;0.80;99.90;;;;;;5033566;28;20492;-76
2024/02/08 03:26:19;;;;;;;10.50;7.50;;;0.80;99.90;;;;;;5033392;28;20464;-75
2024/02/08 03:28:51;;;;;;;11.67;7.50;;;0.80;99.90;;;;;;5033424;28;20469;-75
2024/02/08 03:31:20;;;;;;;11.17;8.37;;;0.80;99.90;;;;;;5035090;28;20433;-76
2024/02/08 03:33:50;;;;;;;9.70;7.23;;;0.80;99.90;;;;;;5033194;28;20443;-75
2024/02/08 03:36:18;;;;;;;11.63;7.60;;;0.80;99.90;;;;;;5033301;28;20446;-75
2024/02/08 03:38:47;;;;;;;12.97;8.50;;;0.80;99.90;;;;;;5034405;28;20961;-75
2024/02/08 03:41:17;;;;;;;10.37;6.30;;;0.80;99.90;;;;;;5034369;28;20435;-76
2024/02/08 03:43:47;;;;;;;10.50;7.17;;;0.90;99.90;;;;;;5034203;28;20434;-75
2024/02/08 03:46:20;;;;;;;16.43;7.40;;;0.90;99.90;;;;;;5033085;28;20457;-75
2024/02/08 03:48:49;;;;;;;12.40;7.70;;;0.90;99.90;;;;;;5033041;28;20446;-75
2024/02/08 03:51:19;;;;;;;10.90;7.43;;;0.90;99.90;;;;;;5032901;28;20454;-75
2024/02/08 03:53:47;;;;;;;10.03;7.27;;;0.90;99.90;;;;;;5033272;28;20465;-75
2024/02/08 03:56:16;;;;;;;11.60;7.27;;;0.90;99.90;;;;;;5034339;28;21025;-76
2024/02/08 03:58:46;;;;;;;12.80;7.80;;;0.90;99.90;;;;;;5034140;28;20929;-75
2024/02/08 04:01:15;;;;;;;13.37;8.63;;;0.90;99.90;;;;;;5034201;28;20423;-75
2024/02/08 04:03:55;;;;;;;11.83;8.03;;;0.90;99.90;;;;;;5032804;28;20448;-75
2024/02/08 04:06:49;;;;;;;12.03;8.40;;;0.90;99.90;;;;;;5034257;28;20423;-75
2024/02/08 04:09:33;;;;;;;11.17;8.20;;;0.90;99.90;;;;;;5032704;28;20509;-75
2024/02/08 04:53:38;;;;;;;14.10;7.83;;;1.00;99.90;;;;;;5032056;28;20468;-75
2024/02/08 04:56:08;;;;;;;17.00;8.23;;;1.00;99.90;;;;;;5033327;28;20453;-75
2024/02/08 04:58:40;;;;;;;13.93;9.10;;;1.00;99.90;;;;;;5033290;28;20443;-75
2024/02/08 05:01:28;;;;;;;11.50;7.70;;;1.00;99.90;;;;;;5031935;28;20442;-75
2024/02/08 05:03:57;;;;;;;11.23;8.27;;;1.00;99.90;;;;;;5033133;28;20437;-75
2024/02/08 05:06:26;;;;;;;11.40;8.17;;;1.00;99.90;;;;;;5035685;28;20472;-75
2024/02/08 05:08:59;;;;;;;11.53;8.67;;;1.00;99.90;;;;;;5037333;28;20454;-75
2024/02/08 05:11:29;;;;;;;10.63;8.77;;;1.00;99.90;;;;;;5037346;28;20458;-75
2024/02/08 05:14:01;;;;;;;14.03;9.20;;;1.00;99.90;;;;;;5035764;28;20478;-75
2024/02/08 05:16:32;;;;;;;13.87;8.00;;;1.00;99.90;;;;;;5035976;28;20440;-76
2024/02/08 05:19:01;;;;;;;9.63;8.70;;;1.00;99.90;;;;;;5035895;28;20482;-75
2024/02/08 05:21:31;;;;;;;11.13;7.90;;;1.00;99.90;;;;;;5037054;28;20473;-75
2024/02/08 05:24:01;;;;;;;12.53;8.90;;;1.00;99.90;;;;;;5035999;28;20446;-75
2024/02/08 05:26:31;;;;;;;14.40;8.93;;;1.00;99.90;;;;;;5035762;28;20539;-75
2024/02/08 05:29:00;;;;;;;15.47;9.50;;;1.00;99.90;;;;;;5035852;28;20451;-75
2024/02/08 05:31:29;;;;;;;9.63;8.50;;;1.00;99.90;;;;;;5035747;28;20452;-75
2024/02/08 05:33:58;;;;;;;12.43;8.30;;;1.00;99.90;;;;;;5036758;28;20468;-75
2024/02/08 05:36:29;;;;;;;10.40;8.23;;;1.00;99.90;;;;;;5036931;28;20492;-75
2024/02/08 05:38:57;;;;;;;11.50;8.77;;;0.90;99.90;;;;;;5037688;28;20501;-76
2024/02/08 05:41:33;;;;;;;10.60;7.80;;;0.90;99.90;;;;;;5035437;28;20492;-75
2024/02/08 05:44:05;;;;;;;12.27;8.53;;;0.90;99.90;;;;;;5035415;28;20450;-75
2024/02/08 05:46:38;;;;;;;12.63;8.70;;;0.90;99.90;;;;;;5035408;28;20450;-75
2024/02/08 05:49:13;;;;;;;12.60;9.40;;;0.90;99.90;;;;;;5035378;28;20472;-75
2024/02/08 05:51:46;;;;;;;9.97;8.70;;;0.90;99.90;;;;;;5035303;28;20440;-75
2024/02/08 05:54:16;;;;;;;9.50;8.23;;;0.90;99.90;;;;;;5036466;28;20850;-75
2024/02/08 05:56:46;;;;;;;13.87;9.10;;;0.90;99.90;;;;;;5036493;28;20510;-75
2024/02/08 05:59:18;;;;;;;12.30;8.83;;;0.90;99.90;;;;;;5036415;28;20516;-75
2024/02/08 06:01:50;;;;;;;16.83;10.33;;;0.90;99.90;;;;;;5036321;28;20937;-75
2024/02/08 06:04:22;;;;;;;13.33;9.77;;;0.90;99.90;;;;;;5035011;28;20469;-75
2024/02/08 06:06:58;;;;;;;10.50;9.30;;;0.90;99.90;;;;;;5035306;28;20498;-75
2024/02/08 06:09:47;;;;;;;9.67;8.67;;;0.80;99.90;;;;;;5036530;28;20424;-76
2024/02/08 06:12:28;;;;;;;14.60;9.57;;;0.80;99.90;;;;;;5034835;28;20546;-76
2024/02/08 06:14:59;;;;;;;14.67;10.07;;;0.80;99.90;;;;;;5036006;28;20828;-76
2024/02/08 06:17:31;;;;;;;14.47;10.00;;;0.80;99.90;;;;;;5035648;28;20413;-76
2024/02/08 06:20:08;;;;;;;10.90;9.47;;;0.80;99.90;;;;;;5034850;28;20485;-76
2024/02/08 06:22:39;;;;;;;15.77;10.30;;;0.80;99.90;;;;;;5034902;28;20449;-76
2024/02/08 06:25:09;;;;;;;18.27;9.40;;;0.80;99.90;;;;;;5034771;28;21005;-76
2024/02/08 06:27:41;;;;;;;10.50;7.97;;;0.80;99.90;;;;;;5034707;28;20472;-77
2024/02/08 06:30:18;;;;;;;14.20;10.40;;;0.80;99.90;;;;;;5034872;28;20441;-75
2024/02/08 06:32:45;;;;;;;15.30;10.83;;;0.90;99.90;;;;;;5034587;28;20273;-76
2024/02/08 06:35:19;;;;;;;10.17;8.83;;;0.90;99.90;;;;;;5034466;28;20469;-76
2024/02/08 06:37:56;;;;;;;11.47;9.43;;;0.90;99.90;;;;;;5035788;28;20430;-76
2024/02/08 06:40:37;;;;;;;14.00;10.03;;;0.90;99.90;;;;;;5034481;28;21095;-76
2024/02/08 06:46:09;;;;;;;12.43;9.40;;;0.90;99.90;;;;;;5035589;28;20461;-76
2024/02/08 06:48:48;;;;;;;10.40;8.90;;;0.90;99.90;;;;;;5035689;28;20505;-76
2024/02/08 07:39:30;;;;;;;12.37;10.40;;;1.00;99.90;;;;;;5025047;28;20470;-76
2024/02/08 07:41:53;;;;;;;16.20;10.90;;;1.00;99.90;;;;;;5034403;28;20525;-76
2024/02/08 07:44:22;;;;;;;13.03;9.63;;;1.00;99.90;;;;;;5033155;28;20463;-76
2024/02/08 07:46:54;;;;;;;16.40;10.43;;;1.00;99.90;;;;;;5033515;28;20955;-76
2024/02/08 07:49:41;;;;;;;14.10;10.60;;;1.10;99.90;;;;;;5033188;28;20849;-76
2024/02/08 07:52:19;;;;;;;12.83;9.33;;;1.00;99.90;;;;;;5034485;28;20430;-76
2024/02/08 07:54:56;;;;;;;14.87;10.00;;;1.10;99.90;;;;;;5033777;28;20483;-76
2024/02/08 07:57:26;;;;;;;11.80;10.00;;;1.10;99.90;;;;;;5033141;28;20546;-76
2024/02/08 07:59:59;;;;;;;11.03;9.43;;;1.10;99.90;;;;;;5034231;28;20986;-75
2024/02/08 08:02:29;;;;;;;14.33;11.10;;;1.20;99.90;;;;;;5034192;28;20479;-76
2024/02/08 08:05:01;;;;;;;15.53;10.53;;;1.20;99.90;;;;;;5034201;28;20482;-76
2024/02/08 08:07:34;;;;;;;16.13;11.60;;;1.20;99.90;;;;;;5034376;28;20431;-76
2024/02/08 08:10:08;;;;;;;16.03;11.00;;;1.20;99.90;;;;;;5034023;28;20490;-76
2024/02/08 08:12:37;;;;;;;16.90;10.53;;;1.30;99.90;;;;;;5032820;28;20456;-76
2024/02/08 08:15:14;;;;;;;13.03;10.10;;;1.30;99.90;;;;;;5032512;28;20479;-76
2024/02/08 08:17:43;;;;;;;12.50;9.40;;;1.30;99.90;;;;;;5033969;28;20425;-76
2024/02/08 08:20:46;;;;;;;11.27;9.90;;;1.30;99.90;;;;;;5032528;28;20490;-76
2024/02/08 08:23:07;;;;;;;14.57;9.60;;;1.30;99.90;;;;;;5032455;28;20439;-76
2024/02/08 08:28:40;;;;;;;19.33;8.57;;;1.40;99.90;;;;;;5194455;27;20554;-76
2024/02/08 08:31:35;;;;;;;15.17;9.63;;;1.50;99.90;;;;;;5194136;27;20462;-76
2024/02/08 08:36:57;;;;;;;13.37;10.03;;;1.50;99.90;;;;;;5148641;27;20454;-76
2024/02/08 08:42:16;;;;;;;14.63;11.60;;;1.60;99.90;;;;;;5194385;27;20893;-76
2024/02/08 08:44:51;;;;;;;15.77;9.80;;;1.60;99.90;;;;;;5194160;27;20505;-76
2024/02/08 08:47:24;;;;;;;14.27;9.83;;;1.60;99.90;;;;;;5175080;27;20482;-75
2024/02/08 08:49:52;;;;;;;16.57;9.67;;;1.70;99.90;;;;;;5175167;27;20439;-75
2024/02/08 08:52:24;;;;;;;14.67;9.30;;;1.70;99.90;;;;;;5175063;27;20460;-76
2024/02/08 08:55:10;;;;;;;13.83;9.70;;;1.70;99.90;;;;;;5174910;27;20553;-76
2024/02/08 08:57:39;;;;;;;15.17;9.87;;;1.70;99.90;;;;;;5175240;27;20556;-76
2024/02/08 09:00:11;;;;;;;14.03;8.80;;;1.80;99.90;;;;;;5174898;27;20490;-76
2024/02/08 09:02:50;;;;;;;14.43;10.20;;;1.80;99.90;;;;;;5174859;27;20446;-75
2024/02/08 09:05:30;;;;;;;20.93;11.90;;;1.80;99.90;;;;;;5175501;27;20880;-76
2024/02/08 09:08:00;;;;;;;12.83;9.47;;;1.90;99.90;;;;;;5174689;27;20551;-75
2024/02/08 09:10:34;;;;;;;14.20;9.63;;;1.90;99.90;;;;;;5193445;27;20435;-75
2024/02/08 09:13:06;;;;;;;13.53;10.40;;;2.00;99.90;;;;;;5174642;27;20441;-75
2024/02/08 09:15:48;;;;;;;13.43;9.30;;;2.00;99.90;;;;;;5174476;27;20470;-75
2024/02/08 09:18:16;;;;;;;16.43;9.37;;;2.10;99.90;;;;;;5193652;27;20423;-75
2024/02/08 09:20:45;;;;;;;19.30;13.60;;;2.10;99.90;;;;;;5174492;27;20455;-76
2024/02/08 09:23:14;;;;;;;25.73;14.60;;;2.20;99.90;;;;;;5193227;27;20432;-75
2024/02/08 09:25:45;;;;;;;13.17;9.40;;;2.20;99.90;;;;;;5193074;27;20451;-75
2024/02/08 09:28:35;;;;;;;13.10;9.30;;;2.30;99.90;;;;;;5192994;27;20854;-75
2024/02/08 09:31:12;;;;;;;18.63;9.47;;;2.30;99.90;;;;;;5192970;27;20984;-76
2024/02/08 09:33:50;;;;;;;16.63;10.47;;;2.40;99.90;;;;;;5174277;27;20439;-76
2024/02/08 09:36:19;;;;;;;17.87;9.83;;;2.40;99.90;;;;;;5174238;27;20443;-76
2024/02/08 09:38:50;;;;;;;13.77;9.33;;;2.50;99.90;;;;;;5167162;27;20523;-75
2024/02/08 09:41:23;;;;;;;10.80;9.53;;;2.50;99.90;;;;;;5160190;27;20464;-75
2024/02/08 09:43:56;;;;;;;14.33;9.00;;;2.60;99.90;;;;;;5160940;27;20432;-75
2024/02/08 09:49:17;;;;;;;14.90;9.17;;;2.60;99.90;;;;;;5159882;27;20483;-75
2024/02/08 09:51:53;;;;;;;14.27;9.77;;;2.70;99.90;;;;;;5178903;27;20823;-75
2024/02/08 09:54:31;;;;;;;10.90;8.50;;;2.70;99.90;;;;;;5159875;27;20896;-75
2024/02/08 09:57:02;;;;;;;13.97;8.30;;;2.80;99.90;;;;;;5159934;27;20444;-75
2024/02/08 10:02:33;;;;;;;13.20;9.43;;;2.80;99.90;;;;;;5159823;27;20451;-75
2024/02/08 10:08:04;;;;;;;18.20;9.37;;;2.90;99.90;;;;;;5159475;27;20816;-75
2024/02/08 10:10:43;;;;;;;19.10;9.33;;;3.00;99.90;;;;;;5160726;27;20834;-76
2024/02/08 10:13:26;;;;;;;17.93;8.37;;;3.00;99.90;;;;;;5159688;27;20521;-76
2024/02/08 10:15:56;;;;;;;16.37;9.30;;;3.10;99.90;;;;;;5159465;27;20467;-76
2024/02/08 10:18:37;;;;;;;13.07;10.10;;;3.10;99.90;;;;;;5159449;27;20444;-75
2024/02/08 10:21:12;;;;;;;13.13;9.30;;;3.20;99.90;;;;;;5178386;27;20412;-76
2024/02/08 10:23:58;;;;;;;15.13;10.17;;;3.20;99.90;;;;;;5159407;27;20524;-76
2024/02/08 10:26:27;;;;;;;15.20;10.50;;;3.30;99.90;;;;;;5178097;27;20878;-77
2024/02/08 10:28:56;;;;;;;17.80;11.33;;;3.30;99.90;;;;;;5178194;27;20483;-76
2024/02/08 10:31:25;;;;;;;18.40;10.83;;;3.40;99.90;;;;;;5178011;27;20437;-77
2024/02/08 10:34:09;;;;;;;16.10;10.30;;;3.50;99.90;;;;;;5178257;27;20433;-76
2024/02/08 10:36:44;;;;;;;14.90;8.80;;;3.50;99.90;;;;;;5159270;27;20436;-77
2024/02/08 10:39:25;;;;;;;14.30;9.57;;;3.60;99.90;;;;;;5178024;27;20428;-75
2024/02/08 10:42:01;;;;;;;14.30;9.67;;;3.70;99.90;;;;;;5177952;27;20440;-75
2024/02/08 10:44:32;;;;;;;32.27;19.00;;;3.70;99.90;;;;;;5158863;27;20475;-75
2024/02/08 10:47:11;;;;;;;18.73;10.83;;;3.80;99.90;;;;;;5159145;27;20519;-77
2024/02/08 10:49:46;;;;;;;24.33;11.57;;;3.80;99.90;;;;;;5158858;27;20834;-76
2024/02/08 10:52:21;;;;;;;19.00;10.00;;;3.90;99.90;;;;;;5177055;27;20424;-78
2024/02/08 10:54:52;;;;;;;15.57;10.03;;;4.00;99.90;;;;;;5159209;27;20507;-76
2024/02/08 11:03:00;;;;;;;9.80;8.80;;;4.10;99.90;;;;;;5176592;27;20437;-74
2024/02/08 11:05:48;;;;;;;11.33;8.27;;;4.20;99.90;;;;;;5158505;27;20460;-76
2024/02/08 11:08:32;;;;;;;13.10;7.80;;;4.30;99.90;;;;;;5158725;27;20461;-77
2024/02/08 11:11:09;;;;;;;13.00;7.83;;;4.30;99.90;;;;;;5177639;27;20412;-76
2024/02/08 11:13:45;;;;;;;17.07;7.43;;;4.40;99.90;;;;;;5177563;27;20501;-77
2024/02/08 11:16:22;;;;;;;11.97;6.60;;;4.40;99.90;;;;;;5158499;27;20435;-77
2024/02/08 11:18:54;;;;;;;9.93;6.40;;;4.50;99.90;;;;;;5177075;27;20909;-76
2024/02/08 11:21:42;;;;;;;14.70;7.10;;;4.50;99.90;;;;;;5158067;27;20527;-76
2024/02/08 11:24:27;;;;;;;11.03;6.70;;;4.50;99.90;;;;;;5158015;27;20500;-76
2024/02/08 11:26:57;;;;;;;16.17;6.00;;;4.60;99.90;;;;;;5176594;27;20444;-76
2024/02/08 11:29:28;;;;;;;12.20;5.80;;;4.70;99.90;;;;;;5158007;27;20463;-77
2024/02/08 11:31:59;;;;;;;11.13;4.97;;;4.70;99.90;;;;;;5158152;27;20489;-77
2024/02/08 11:34:44;;;;;;;12.63;4.77;;;4.80;99.90;;;;;;5157945;27;20508;-77
2024/02/08 11:37:17;;;;;;;11.13;4.80;;;4.80;99.90;;;;;;5176864;27;20469;-77
2024/02/08 11:39:58;;;;;;;12.50;4.67;;;4.90;99.90;;;;;;5158042;27;20465;-77
2024/02/08 11:42:35;;;;;;;12.00;5.30;;;4.90;99.90;;;;;;5157754;27;20436;-77
2024/02/08 11:45:08;;;;;;;13.33;6.30;;;4.90;99.90;;;;;;5158142;27;20460;-77
2024/02/08 11:47:40;;;;;;;10.47;6.07;;;5.00;99.90;;;;;;5157599;27;20500;-76
2024/02/08 11:50:20;;;;;;;12.60;5.67;;;5.00;99.90;;;;;;5157572;27;20456;-77
2024/02/08 11:52:57;;;;;;;11.83;6.20;;;5.00;99.90;;;;;;5176188;27;20762;-76
2024/02/08 11:55:28;;;;;;;8.50;4.53;;;5.00;99.90;;;;;;5157379;27;20987;-76
2024/02/08 11:57:58;;;;;;;13.03;4.43;;;5.00;99.90;;;;;;5157418;27;20529;-77
2024/02/08 12:00:30;;;;;;;9.27;3.90;;;5.10;99.90;;;;;;5157318;27;20438;-76
2024/02/08 12:02:58;;;;;;;10.60;4.70;;;5.10;99.90;;;;;;5157064;27;20428;-76
2024/02/08 12:05:28;;;;;;;12.47;5.27;;;5.10;99.90;;;;;;5175914;27;20460;-76
2024/02/08 12:08:09;;;;;;;9.47;5.33;;;5.10;99.90;;;;;;5175975;27;20921;-75
2024/02/08 12:10:41;;;;;;;9.40;4.80;;;5.10;99.90;;;;;;5176046;27;20469;-76
2024/02/08 12:13:12;;;;;;;9.63;5.00;;;5.10;99.90;;;;;;5157309;27;20524;-77
2024/02/08 12:15:55;;;;;;;14.27;4.63;;;5.10;99.90;;;;;;5175867;27;20918;-76
2024/02/08 12:18:27;;;;;;;11.50;5.63;;;5.10;99.90;;;;;;5157244;27;20951;-76
2024/02/08 12:20:59;;;;;;;14.50;6.67;;;5.10;99.90;;;;;;5157158;27;20433;-77
2024/02/08 12:23:31;;;;;;;14.50;5.40;;;5.20;99.90;;;;;;5157218;27;20433;-76
2024/02/08 12:26:03;;;;;;;10.10;5.80;;;5.20;99.90;;;;;;5176229;27;20448;-77
2024/02/08 12:28:35;;;;;;;10.60;5.30;;;5.20;99.90;;;;;;5176453;27;20470;-77
2024/02/08 12:31:16;;;;;;;15.27;6.00;;;5.20;99.90;;;;;;5157471;27;20862;-76
2024/02/08 12:33:50;;;;;;;12.73;5.80;;;5.20;99.90;;;;;;5176108;27;20431;-76
2024/02/08 12:36:23;;;;;;;12.60;6.40;;;5.30;99.90;;;;;;5175997;27;20500;-76
2024/02/08 12:38:58;;;;;;;12.37;6.40;;;5.30;99.90;;;;;;5157026;27;20437;-76
2024/02/08 12:41:29;;;;;;;15.03;7.73;;;5.30;99.90;;;;;;5156959;27;20441;-76
2024/02/08 12:43:58;;;;;;;9.93;5.70;;;5.30;99.90;;;;;;5175595;27;20421;-76
2024/02/08 12:46:27;;;;;;;11.13;5.00;;;5.30;99.90;;;;;;5175593;27;21016;-77
2024/02/08 12:48:56;;;;;;;13.07;5.47;;;5.30;99.90;;;;;;5156817;27;20497;-76
2024/02/08 12:51:25;;;;;;;12.43;4.50;;;5.30;99.90;;;;;;5175575;27;20439;-77
2024/02/08 12:54:02;;;;;;;14.23;4.60;;;5.30;99.90;;;;;;5156777;27;20949;-76
2024/02/08 12:56:30;;;;;;;8.47;3.63;;;5.30;99.90;;;;;;5175812;27;20444;-76
2024/02/08 12:59:02;;;;;;;11.70;3.53;;;5.30;99.90;;;;;;5175759;27;20966;-76
2024/02/08 13:01:38;;;;;;;8.87;4.00;;;5.30;99.90;;;;;;5156875;27;20458;-76
2024/02/08 13:04:07;;;;;;;14.50;4.83;;;5.30;99.90;;;;;;5157555;27;20437;-76
2024/02/08 13:06:36;;;;;;;6.33;3.83;;;5.20;99.90;;;;;;5156764;27;20462;-76
2024/02/08 13:09:25;;;;;;;11.60;3.80;;;5.20;99.90;;;;;;5156609;27;20460;-76
2024/02/08 13:12:15;;;;;;;10.90;4.47;;;5.20;99.90;;;;;;5156715;27;20449;-76
2024/02/08 13:14:56;;;;;;;12.83;4.80;;;5.20;99.90;;;;;;5178029;27;20520;-76
2024/02/08 13:17:27;;;;;;;11.40;4.70;;;5.20;99.90;;;;;;5160710;27;20801;-76
2024/02/08 13:19:57;;;;;;;9.70;5.00;;;5.20;99.90;;;;;;5160693;27;20449;-77
2024/02/08 13:22:31;;;;;;;8.00;4.50;;;5.10;99.90;;;;;;5160500;27;20451;-76
2024/02/08 13:25:03;;;;;;;11.47;5.20;;;5.10;99.90;;;;;;5179026;27;20449;-77
2024/02/08 13:27:31;;;;;;;11.23;5.10;;;5.20;99.90;;;;;;5160353;27;20452;-76
2024/02/08 13:30:00;;;;;;;10.87;4.70;;;5.20;99.90;;;;;;5160252;27;20472;-77
2024/02/08 13:32:30;;;;;;;13.13;5.90;;;5.20;99.90;;;;;;5178983;27;20436;-76
2024/02/08 13:35:00;;;;;;;9.53;4.90;;;5.20;99.90;;;;;;5160162;27;20472;-76
2024/02/08 13:37:30;;;;;;;8.23;3.67;;;5.20;99.90;;;;;;5160260;27;20806;-77
2024/02/08 13:40:03;;;;;;;13.33;3.90;;;5.20;99.90;;;;;;5178883;27;20429;-76
2024/02/08 13:42:33;;;;;;;9.60;4.80;;;5.20;99.90;;;;;;5179065;27;20413;-76
2024/02/08 13:45:24;;;;;;;13.30;4.90;;;5.20;99.90;;;;;;5159991;27;20846;-77
2024/02/08 13:47:56;;;;;;;10.90;3.80;;;5.20;99.90;;;;;;5160127;27;20455;-76
2024/02/08 13:50:28;;;;;;;10.43;4.43;;;5.20;99.90;;;;;;5160004;27;20462;-76
2024/02/08 13:53:01;;;;;;;9.77;4.43;;;5.10;99.90;;;;;;5159921;27;20441;-77
2024/02/08 13:55:32;;;;;;;13.23;5.67;;;5.10;99.90;;;;;;5178595;27;20825;-77
2024/02/08 13:58:06;;;;;;;13.63;5.63;;;5.10;99.90;;;;;;5159864;27;20508;-77
2024/02/08 14:00:36;;;;;;;13.73;4.43;;;5.10;99.90;;;;;;5159832;27;20479;-76
2024/02/08 14:03:08;;;;;;;10.90;4.53;;;5.10;99.90;;;;;;5178512;27;20428;-76
2024/02/08 14:05:39;;;;;;;10.23;4.40;;;5.00;99.90;;;;;;5159727;27;20867;-76
2024/02/08 14:08:16;;;;;;;8.70;4.43;;;5.00;99.90;;;;;;5178978;27;20449;-76
2024/02/08 14:10:46;;;;;;;10.00;3.93;;;5.00;99.90;;;;;;5178481;27;20459;-75
2024/02/08 14:13:28;;;;;;;10.37;5.20;;;5.00;99.90;;;;;;5159487;27;20490;-75
2024/02/08 14:16:00;;;;;;;14.30;4.77;;;5.00;99.90;;;;;;5178190;27;20508;-75
2024/02/08 14:18:31;;;;;;;9.37;3.77;;;5.00;99.90;;;;;;5159383;27;20432;-75
2024/02/08 14:21:03;;;;;;;7.50;3.47;;;4.90;99.90;;;;;;5159384;27;20439;-75
2024/02/08 14:23:37;;;;;;;8.87;4.07;;;5.00;99.90;;;;;;5178031;27;20425;-75
2024/02/08 14:26:30;;;;;;;8.47;3.90;;;4.90;99.90;;;;;;5159130;27;20992;-74
2024/02/08 14:29:00;;;;;;;13.53;4.13;;;5.00;99.90;;;;;;5159234;27;20452;-75
2024/02/08 14:31:29;;;;;;;11.03;4.00;;;4.90;99.90;;;;;;5159089;27;20465;-76
2024/02/08 14:33:57;;;;;;;13.03;4.57;;;4.90;99.90;;;;;;5158949;27;20808;-75
2024/02/08 14:36:28;;;;;;;6.97;4.33;;;4.90;99.90;;;;;;5159073;27;20497;-75
2024/02/08 14:38:56;;;;;;;7.53;3.83;;;4.90;99.90;;;;;;5159282;27;20518;-75
2024/02/08 14:41:32;;;;;;;8.60;3.80;;;5.00;99.90;;;;;;5159094;27;20975;-75
2024/02/08 14:44:16;;;;;;;8.13;3.37;;;4.90;99.90;;;;;;5159029;27;20448;-75
2024/02/08 14:46:46;;;;;;;12.13;4.07;;;4.90;99.90;;;;;;5178144;27;20516;-77
2024/02/08 14:49:24;;;;;;;9.90;5.17;;;4.90;99.90;;;;;;5159032;27;20438;-77
2024/02/08 14:52:01;;;;;;;14.43;8.43;;;4.90;99.90;;;;;;5177798;27;20812;-77
2024/02/08 14:54:32;;;;;;;12.10;5.50;;;4.90;99.90;;;;;;5158944;27;20514;-77
2024/02/08 14:57:09;;;;;;;10.33;5.20;;;4.90;99.90;;;;;;5177640;27;20462;-76
2024/02/08 14:59:49;;;;;;;10.33;6.27;;;4.90;99.90;;;;;;5158723;27;20454;-76
2024/02/08 15:02:20;;;;;;;9.17;5.80;;;4.90;99.90;;;;;;5158609;27;21007;-76
2024/02/08 15:04:52;;;;;;;12.00;6.60;;;4.90;99.90;;;;;;5158374;27;20462;-76
2024/02/08 15:10:37;;;;;;;3.30;2.47;;;4.90;99.90;;;;;;5072711;28;20500;-76
2024/02/08 15:13:11;;;;;;;5.30;2.93;;;4.90;99.90;;;;;;5148097;27;20448;-76
2024/02/08 15:15:41;;;;;;;10.10;4.93;;;4.90;99.90;;;;;;5158278;27;20576;-74